createdAt,value
2024-02-19T00:02:19.733Z,98388.47
2024-02-19T00:04:48.249Z,98379.81
2024-02-19T00:07:19.499Z,98383.28
2024-02-19T00:09:48.181Z,98374.63
2024-02-19T00:12:18.048Z,98377.16
2024-02-19T00:14:46.507Z,98384.94
2024-02-19T00:17:15.357Z,98357.16
2024-02-19T00:19:43.860Z,98303.31
2024-02-19T00:22:12.572Z,98336.34
2024-02-19T00:24:41.109Z,98356.25
2024-02-19T00:27:09.749Z,98367.56
2024-02-19T00:29:39.583Z,98337.06
2024-02-19T00:32:08.432Z,98361.50
2024-02-19T00:34:38.960Z,98354.56
2024-02-19T00:37:07.358Z,98365.78
2024-02-19T00:39:35.731Z,98358.00
2024-02-19T00:42:04.413Z,98392.69
2024-02-19T00:44:32.761Z,98347.59
2024-02-19T00:47:02.755Z,98349.31
2024-02-19T00:49:31.159Z,98330.19
2024-02-19T00:51:59.622Z,98335.38
2024-02-19T00:54:27.945Z,98345.78
2024-02-19T00:56:56.300Z,98336.31
2024-02-19T00:59:25.040Z,98331.94
2024-02-19T01:01:53.627Z,98325.78
2024-02-19T01:04:23.516Z,98336.19
2024-02-19T01:06:51.919Z,98342.19
2024-02-19T01:09:20.391Z,98343.97
2024-02-19T01:11:48.701Z,98336.19
2024-02-19T01:14:17.112Z,98331.81
2024-02-19T01:16:46.432Z,98320.53
2024-02-19T01:19:14.863Z,98328.28
2024-02-19T01:21:44.926Z,98276.13
2024-02-19T01:24:13.293Z,98319.66
2024-02-19T01:26:41.666Z,98311.91
2024-02-19T01:29:10.020Z,98313.63
2024-02-19T01:31:38.765Z,98321.41
2024-02-19T01:34:07.194Z,98249.28
2024-02-19T01:36:35.681Z,98310.88
2024-02-19T01:39:05.715Z,98304.84
2024-02-19T01:41:34.038Z,98312.63
2024-02-19T01:44:03.382Z,98310.84
2024-02-19T01:46:32.426Z,98310.84
2024-02-19T01:49:01.266Z,98007.22
2024-02-19T01:51:30.706Z,98245.00
2024-02-19T01:53:59.914Z,98313.50
2024-02-19T01:56:30.088Z,98275.38
2024-02-19T01:58:59.005Z,98289.22
2024-02-19T02:01:28.358Z,98297.88
2024-02-19T02:03:57.284Z,98304.75
2024-02-19T02:06:26.070Z,98353.22
2024-02-19T02:08:54.439Z,98303.88
2024-02-19T02:11:22.874Z,98198.81
2024-02-19T02:13:52.605Z,98300.47
2024-02-19T02:16:27.034Z,98296.16
2024-02-19T02:18:55.715Z,98287.50
2024-02-19T02:21:25.207Z,98285.75
2024-02-19T02:23:53.758Z,98274.47
2024-02-19T02:26:22.652Z,98275.34
2024-02-19T02:28:52.584Z,98277.97
2024-02-19T02:31:21.095Z,98275.38
2024-02-19T02:33:49.695Z,98284.94
2024-02-19T02:36:18.196Z,98282.31
2024-02-19T02:38:46.546Z,98284.94
2024-02-19T02:41:15.805Z,98262.44
2024-02-19T02:43:44.207Z,98270.19
2024-02-19T02:46:14.046Z,98271.97
2024-02-19T02:48:42.640Z,98176.53
2024-02-19T02:51:11.127Z,98201.66
2024-02-19T02:53:39.445Z,98218.13
2024-02-19T02:56:08.485Z,98265.00
2024-02-19T02:58:36.989Z,98251.13
2024-02-19T03:01:05.400Z,98256.34
2024-02-19T03:03:35.338Z,98258.94
2024-02-19T03:06:04.305Z,98259.78
2024-02-19T03:08:32.669Z,98269.31
2024-02-19T03:11:01.885Z,98273.72
2024-02-19T03:13:30.263Z,98262.47
2024-02-19T03:15:59.122Z,98260.72
2024-02-19T03:18:27.987Z,98230.38
2024-02-19T03:20:58.311Z,98246.94
2024-02-19T03:23:26.736Z,98213.13
2024-02-19T03:25:55.292Z,98223.50
2024-02-19T03:28:26.358Z,98183.56
2024-02-19T03:30:54.834Z,98222.56
2024-02-19T03:33:23.774Z,98199.94
2024-02-19T03:35:54.087Z,98228.53
2024-02-19T03:38:25.884Z,98235.47
2024-02-19T03:40:54.844Z,98244.13
2024-02-19T03:43:23.281Z,98240.75
2024-02-19T03:45:52.035Z,98236.44
2024-02-19T03:48:20.620Z,98240.78
2024-02-19T03:50:49.043Z,98231.28
2024-02-19T03:53:17.437Z,98233.84
2024-02-19T03:55:47.280Z,98242.53
2024-02-19T03:58:15.808Z,98228.69
2024-02-19T04:00:45.087Z,98227.00
2024-02-19T04:03:13.482Z,98248.63
2024-02-19T04:05:41.873Z,98234.78
2024-02-19T04:08:10.218Z,98234.81
2024-02-19T04:10:38.552Z,98228.75
2024-02-19T04:13:08.405Z,98227.03
2024-02-19T04:15:36.896Z,98218.34
2024-02-19T04:18:05.674Z,98217.34
2024-02-19T04:20:34.316Z,98236.41
2024-02-19T04:23:02.785Z,98231.19
2024-02-19T04:25:31.283Z,98251.06
2024-02-19T04:27:59.706Z,98227.66
2024-02-19T04:30:29.484Z,98234.66
2024-02-19T04:32:58.049Z,98229.53
2024-02-19T04:35:26.467Z,98234.75
2024-02-19T04:37:54.860Z,98226.13
2024-02-19T04:40:23.219Z,98221.81
2024-02-19T04:42:51.705Z,98238.28
2024-02-19T04:45:20.088Z,98184.53
2024-02-19T04:47:49.984Z,98219.19
2024-02-19T04:50:19.513Z,98230.47
2024-02-19T04:52:48.282Z,98221.84
2024-02-19T04:55:17.081Z,98201.91
2024-02-19T04:57:45.431Z,98198.47
2024-02-19T05:00:15.084Z,98218.41
2024-02-19T05:02:43.462Z,98237.47
2024-02-19T05:05:13.702Z,98214.91
2024-02-19T05:07:45.325Z,98235.72
2024-02-19T05:10:14.471Z,98233.16
2024-02-19T05:12:42.910Z,98227.97
2024-02-19T05:15:12.788Z,98188.91
2024-02-19T05:17:41.150Z,98204.44
2024-02-19T05:20:12.274Z,98233.16
2024-02-19T05:22:42.289Z,98236.66
2024-02-19T05:25:11.313Z,98237.56
2024-02-19T05:27:39.873Z,98211.50
2024-02-19T05:30:09.330Z,98232.34
2024-02-19T05:32:38.512Z,98235.81
2024-02-19T05:35:08.357Z,98224.53
2024-02-19T05:37:36.687Z,98218.47
2024-02-19T05:40:07.493Z,98222.84
2024-02-19T05:42:36.361Z,98222.88
2024-02-19T05:45:05.802Z,98221.13
2024-02-19T05:47:36.314Z,98186.44
2024-02-19T05:50:04.945Z,98191.66
2024-02-19T05:52:33.314Z,98221.09
2024-02-19T05:55:04.251Z,98213.31
2024-02-19T05:57:34.101Z,98149.16
2024-02-19T06:00:02.430Z,98215.03
2024-02-19T06:02:31.149Z,98220.22
2024-02-19T06:04:59.649Z,98229.72
2024-02-19T06:07:28.088Z,98228.84
2024-02-19T06:09:56.588Z,98139.53
2024-02-19T06:12:25.792Z,98230.56
2024-02-19T06:14:55.675Z,98226.22
2024-02-19T06:17:24.027Z,98202.78
2024-02-19T06:19:52.424Z,98234.03
2024-02-19T06:22:28.637Z,98228.00
2024-02-19T06:24:57.835Z,98240.13
2024-02-19T06:27:26.334Z,98233.22
2024-02-19T06:29:56.199Z,98236.72
2024-02-19T06:32:24.624Z,98223.72
2024-02-19T06:34:53.147Z,98230.69
2024-02-19T06:37:21.795Z,98226.34
2024-02-19T06:39:50.215Z,98223.78
2024-02-19T06:42:19.377Z,98228.13
2024-02-19T06:44:47.803Z,98236.72
2024-02-19T06:47:19.075Z,98228.09
2024-02-19T06:49:47.523Z,98224.63
2024-02-19T06:52:16.107Z,98212.50
2024-02-19T06:54:46.768Z,98200.38
2024-02-19T06:57:15.531Z,98222.91
2024-02-19T06:59:44.220Z,98213.41
2024-02-19T07:02:13.194Z,98219.47
2024-02-19T07:04:43.156Z,98225.53
2024-02-19T07:07:11.736Z,98230.78
2024-02-19T07:09:41.599Z,98225.56
2024-02-19T07:12:10.646Z,98229.06
2024-02-19T07:14:39.054Z,98210.81
2024-02-19T07:17:07.460Z,98217.75
2024-02-19T07:19:36.397Z,98233.38
2024-02-19T07:22:06.581Z,98229.91
2024-02-19T07:24:35.346Z,98220.34
2024-02-19T07:27:03.838Z,98207.34
2024-02-19T07:29:32.378Z,98244.66
2024-02-19T07:32:00.925Z,98234.25
2024-02-19T07:34:29.781Z,98222.97
2024-02-19T07:36:58.374Z,98244.63
2024-02-19T07:39:28.359Z,98194.34
2024-02-19T07:41:56.801Z,98255.03
2024-02-19T07:44:25.217Z,98248.13
2024-02-19T07:46:53.630Z,98241.19
2024-02-19T07:49:22.195Z,98252.44
2024-02-19T07:51:50.590Z,98255.03
2024-02-19T07:54:19.101Z,98252.41
2024-02-19T07:56:48.903Z,98251.53
2024-02-19T07:59:17.254Z,98259.34
2024-02-19T08:01:45.802Z,98252.38
2024-02-19T08:04:14.436Z,98240.22
2024-02-19T08:06:43.055Z,98256.75
2024-02-19T08:09:11.464Z,98255.00
2024-02-19T08:11:39.913Z,98250.63
2024-02-19T08:14:09.892Z,98243.69
2024-02-19T08:16:38.373Z,98253.19
2024-02-19T08:19:06.866Z,98243.63
2024-02-19T08:21:35.335Z,98233.19
2024-02-19T08:24:03.743Z,98242.66
2024-02-19T08:26:32.695Z,98222.66
2024-02-19T08:29:01.181Z,98245.16
2024-02-19T08:31:31.055Z,98238.22
2024-02-19T08:34:00.166Z,98234.72
2024-02-19T08:36:28.654Z,98239.91
2024-02-19T08:38:57.089Z,98231.22
2024-02-19T08:41:25.514Z,98227.69
2024-02-19T08:43:53.936Z,98244.09
2024-02-19T08:46:22.370Z,98248.34
2024-02-19T08:48:55.565Z,98246.53
2024-02-19T08:51:25.270Z,98238.72
2024-02-19T08:53:59.334Z,98242.09
2024-02-19T08:56:28.773Z,98244.66
2024-02-19T08:58:57.352Z,98240.28
2024-02-19T09:01:26.038Z,98249.78
2024-02-19T09:03:55.974Z,98236.69
2024-02-19T09:06:24.543Z,98236.56
2024-02-19T09:08:53.158Z,98241.66
2024-02-19T09:11:21.507Z,98236.34
2024-02-19T09:13:50.555Z,98207.78
2024-02-19T09:16:18.974Z,98240.78
2024-02-19T09:18:47.483Z,98242.47
2024-02-19T09:21:17.527Z,98213.78
2024-02-19T09:23:45.919Z,98234.47
2024-02-19T09:26:15.224Z,98210.22
2024-02-19T09:28:45.459Z,98179.75
2024-02-19T09:31:13.843Z,98216.00
2024-02-19T09:33:42.335Z,98231.53
2024-02-19T09:36:13.506Z,98226.31
2024-02-19T09:38:43.486Z,98230.72
2024-02-19T09:41:11.981Z,98210.84
2024-02-19T09:43:40.751Z,98219.34
2024-02-19T09:46:16.785Z,98222.72
2024-02-19T09:48:49.997Z,98217.41
2024-02-19T09:51:29.595Z,98223.50
2024-02-19T09:54:07.136Z,98226.84
2024-02-19T09:56:36.489Z,98214.59
2024-02-19T09:59:07.293Z,98224.78
2024-02-19T10:01:36.086Z,98214.94
2024-02-19T10:04:07.654Z,98220.75
2024-02-19T10:06:38.219Z,98222.06
2024-02-19T10:09:09.323Z,98222.63
2024-02-19T10:11:38.066Z,98210.09
2024-02-19T10:14:06.776Z,98179.81
2024-02-19T10:16:35.331Z,98209.03
2024-02-19T10:19:07.724Z,98213.25
2024-02-19T10:21:38.249Z,98213.25
2024-02-19T10:24:08.611Z,98197.81
2024-02-19T10:26:37.317Z,98201.09
2024-02-19T10:29:06.517Z,98200.00
2024-02-19T10:31:34.994Z,98190.16
2024-02-19T10:34:03.760Z,98181.44
2024-02-19T10:36:33.030Z,98194.56
2024-02-19T10:39:01.406Z,98196.44
2024-02-19T10:41:31.332Z,98191.97
2024-02-19T10:43:59.989Z,98177.84
2024-02-19T10:46:29.052Z,98181.03
2024-02-19T10:48:58.192Z,98173.84
2024-02-19T10:51:27.264Z,98159.81
2024-02-19T10:54:03.634Z,98112.25
2024-02-19T10:56:41.268Z,98186.47
2024-02-19T10:59:10.390Z,98170.63
2024-02-19T11:01:40.666Z,98161.03
2024-02-19T11:04:21.142Z,98168.66
2024-02-19T11:06:52.216Z,98160.66
2024-02-19T11:09:28.632Z,98167.50
2024-02-19T11:12:01.207Z,98168.16
2024-02-19T11:14:32.306Z,98072.22
2024-02-19T11:17:02.509Z,98167.84
2024-02-19T11:19:38.357Z,98163.50
2024-02-19T11:22:09.684Z,98131.59
2024-02-19T11:24:38.295Z,98141.16
2024-02-19T11:27:09.535Z,98129.16
2024-02-19T11:29:44.338Z,98138.75
2024-02-19T11:32:21.605Z,98158.53
2024-02-19T11:34:52.502Z,98144.47
2024-02-19T11:37:21.945Z,98170.19
2024-02-19T11:39:50.671Z,98141.03
2024-02-19T11:42:20.759Z,98144.84
2024-02-19T11:44:49.852Z,98146.22
2024-02-19T11:47:18.582Z,98143.44
2024-02-19T11:49:48.690Z,98106.97
2024-02-19T11:52:17.429Z,98135.09
2024-02-19T11:54:46.378Z,98122.63
2024-02-19T11:57:15.538Z,98137.16
2024-02-19T11:59:47.840Z,98145.03
2024-02-19T12:02:17.081Z,98116.63
2024-02-19T12:04:52.084Z,98144.59
2024-02-19T12:07:20.642Z,98146.00
2024-02-19T12:09:49.294Z,98136.78
2024-02-19T12:12:18.998Z,98112.97
2024-02-19T12:14:48.976Z,98118.66
2024-02-19T12:17:17.487Z,98127.28
2024-02-19T12:19:45.993Z,98112.75
2024-02-19T12:22:14.461Z,98108.63
2024-02-19T12:24:42.965Z,98104.16
2024-02-19T12:27:11.468Z,98087.59
2024-02-19T12:29:40.633Z,97902.72
2024-02-19T12:32:11.803Z,98103.63
2024-02-19T12:34:40.774Z,98098.06
2024-02-19T12:37:09.350Z,98027.28
2024-02-19T12:39:37.671Z,98087.25
2024-02-19T12:42:09.548Z,98084.25
2024-02-19T12:44:39.629Z,98082.09
2024-02-19T12:47:09.874Z,98085.53
2024-02-19T12:49:40.071Z,98077.31
2024-02-19T12:52:09.934Z,98075.63
2024-02-19T12:54:38.458Z,98080.72
2024-02-19T12:57:07.295Z,98073.72
2024-02-19T12:59:35.708Z,98073.22
2024-02-19T13:02:04.217Z,98061.25
2024-02-19T13:04:34.360Z,98051.84
2024-02-19T13:07:03.289Z,98039.38
2024-02-19T13:09:31.767Z,98034.53
2024-02-19T13:12:00.783Z,98064.91
2024-02-19T13:14:30.037Z,98075.72
2024-02-19T13:17:08.607Z,98056.84
2024-02-19T13:19:43.226Z,98074.84
2024-02-19T13:22:11.806Z,98070.50
2024-02-19T13:24:40.278Z,98072.09
2024-02-19T13:27:08.989Z,98076.84
2024-02-19T13:29:37.505Z,98076.72
2024-02-19T13:32:06.494Z,98081.50
2024-02-19T13:34:35.112Z,98067.84
2024-02-19T13:37:07.833Z,98059.50
2024-02-19T13:39:36.394Z,98058.88
2024-02-19T13:42:05.467Z,98051.38
2024-02-19T13:44:33.988Z,98058.34
2024-02-19T13:47:02.324Z,98041.13
2024-02-19T13:49:30.771Z,98057.56
2024-02-19T13:51:59.267Z,97982.09
2024-02-19T13:54:29.085Z,98015.88
2024-02-19T13:57:02.455Z,98055.19
2024-02-19T13:59:31.968Z,98038.19
2024-02-19T14:02:00.621Z,98026.50
2024-02-19T14:04:29.759Z,98043.66
2024-02-19T14:06:58.749Z,98040.25
2024-02-19T14:09:28.636Z,98022.59
2024-02-19T14:11:56.999Z,98007.69
2024-02-19T14:14:25.900Z,98022.13
2024-02-19T14:16:54.295Z,98009.75
2024-02-19T14:19:23.092Z,97991.03
2024-02-19T14:21:51.525Z,98007.19
2024-02-19T14:24:19.892Z,98015.38
2024-02-19T14:26:49.818Z,98022.75
2024-02-19T14:29:18.199Z,98028.22
2024-02-19T14:31:46.573Z,98026.31
2024-02-19T14:34:15.003Z,98028.63
2024-02-19T14:36:43.501Z,98012.91
2024-02-19T14:39:12.362Z,98045.66
2024-02-19T14:41:40.753Z,98007.06
2024-02-19T14:44:10.941Z,98030.38
2024-02-19T14:46:45.690Z,98033.28
2024-02-19T14:49:19.880Z,98065.81
2024-02-19T14:51:48.715Z,98039.47
2024-02-19T14:54:17.269Z,98067.47
2024-02-19T14:56:45.791Z,98065.00
2024-02-19T14:59:15.564Z,98059.19
2024-02-19T15:01:44.030Z,98088.47
2024-02-19T15:04:14.233Z,98086.28
2024-02-19T15:06:43.606Z,98062.72
2024-02-19T15:09:12.842Z,98067.66
2024-02-19T15:11:41.243Z,98070.53
2024-02-19T15:14:09.651Z,98084.84
2024-02-19T15:16:39.566Z,97987.78
2024-02-19T15:19:10.725Z,98087.91
2024-02-19T15:21:40.715Z,98093.19
2024-02-19T15:24:10.053Z,98085.25
2024-02-19T15:26:38.565Z,98084.63
2024-02-19T15:29:07.491Z,98064.38
2024-02-19T15:31:39.943Z,98085.34
2024-02-19T15:34:10.449Z,98078.06
2024-02-19T15:36:38.908Z,98073.44
2024-02-19T15:39:07.894Z,98090.22
2024-02-19T15:41:36.286Z,98093.91
2024-02-19T15:44:05.580Z,98103.16
2024-02-19T15:46:34.321Z,98047.38
2024-02-19T15:49:02.891Z,98106.03
2024-02-19T15:51:34.869Z,98095.94
2024-02-19T15:54:03.463Z,98105.25
2024-02-19T15:56:31.963Z,98105.56
2024-02-19T15:59:00.379Z,98062.75
2024-02-19T16:01:28.995Z,98111.41
2024-02-19T16:03:57.437Z,98125.84
2024-02-19T16:06:29.596Z,98114.13
2024-02-19T16:09:00.683Z,98078.06
2024-02-19T16:11:29.057Z,98132.44
2024-02-19T16:13:58.330Z,98144.06
2024-02-19T16:16:26.766Z,98140.13
2024-02-19T16:19:00.776Z,98154.25
2024-02-19T16:21:29.240Z,98133.81
2024-02-19T16:23:59.078Z,98160.88
2024-02-19T16:26:27.478Z,98143.81
2024-02-19T16:28:56.622Z,98172.34
2024-02-19T16:31:25.210Z,98180.41
2024-02-19T16:33:53.825Z,98178.84
2024-02-19T16:36:25.208Z,98175.81
2024-02-19T16:38:53.696Z,98196.84
2024-02-19T16:41:23.902Z,98168.56
2024-02-19T16:43:52.437Z,98185.19
2024-02-19T16:46:24.666Z,98180.31
2024-02-19T16:48:53.388Z,98179.53
2024-02-19T16:51:22.219Z,98199.63
2024-02-19T16:53:55.423Z,98199.72
2024-02-19T16:56:28.529Z,98201.81
2024-02-19T16:58:57.225Z,98195.06
2024-02-19T17:01:25.614Z,98197.03
2024-02-19T17:03:54.094Z,98219.47
2024-02-19T17:06:24.498Z,98141.84
2024-02-19T17:08:52.967Z,98220.53
2024-02-19T17:11:22.950Z,98210.25
2024-02-19T17:13:52.840Z,98218.25
2024-02-19T17:16:21.222Z,98225.03
2024-02-19T17:18:49.699Z,98220.72
2024-02-19T17:21:18.079Z,98230.44
2024-02-19T17:23:48.234Z,98226.09
2024-02-19T17:26:18.446Z,98226.09
2024-02-19T17:28:48.986Z,98217.75
2024-02-19T17:31:19.406Z,98219.56
2024-02-19T17:33:48.413Z,98197.91
2024-02-19T17:36:16.943Z,98238.56
2024-02-19T17:38:45.394Z,98231.69
2024-02-19T17:41:13.741Z,98137.72
2024-02-19T17:43:45.261Z,98235.34
2024-02-19T17:46:16.445Z,98243.25
2024-02-19T17:48:48.049Z,98161.19
2024-02-19T17:51:20.613Z,98245.94
2024-02-19T17:53:49.165Z,98246.66
2024-02-19T17:56:18.934Z,98217.59
2024-02-19T17:58:47.713Z,98246.88
2024-02-19T18:01:16.270Z,98250.44
2024-02-19T18:03:46.233Z,98193.66
2024-02-19T18:06:15.537Z,98250.78
2024-02-19T18:08:44.013Z,98254.47
2024-02-19T18:11:14.186Z,98252.69
2024-02-19T18:13:42.671Z,98260.81
2024-02-19T18:16:11.214Z,98253.06
2024-02-19T18:18:40.205Z,98215.13
2024-02-19T18:21:12.487Z,98248.91
2024-02-19T18:23:40.905Z,98254.28
2024-02-19T18:26:09.486Z,98220.69
2024-02-19T18:28:38.010Z,98247.56
2024-02-19T18:31:12.204Z,98257.28
2024-02-19T18:33:41.041Z,98231.31
2024-02-19T18:36:09.760Z,98253.03
2024-02-19T18:38:40.234Z,98247.94
2024-02-19T18:41:09.517Z,98254.94
2024-02-19T18:43:37.995Z,98252.31
2024-02-19T18:46:06.512Z,98258.59
2024-02-19T18:48:36.288Z,98254.34
2024-02-19T18:51:05.454Z,98259.78
2024-02-19T18:53:34.388Z,98258.13
2024-02-19T18:56:04.883Z,98246.09
2024-02-19T18:58:33.333Z,98247.91
2024-02-19T19:01:04.670Z,98267.00
2024-02-19T19:03:34.752Z,98265.41
2024-02-19T19:06:04.863Z,98205.63
2024-02-19T19:08:33.615Z,98261.19
2024-02-19T19:11:05.315Z,98265.78
2024-02-19T19:13:34.826Z,98258.09
2024-02-19T19:16:03.481Z,98255.59
2024-02-19T19:18:32.619Z,98252.13
2024-02-19T19:21:01.157Z,98232.16
2024-02-19T19:23:33.939Z,98252.22
2024-02-19T19:26:03.786Z,98249.59
2024-02-19T19:28:32.270Z,98254.91
2024-02-19T19:31:02.538Z,98262.81
2024-02-19T19:33:31.066Z,98256.72
2024-02-19T19:35:59.514Z,98254.97
2024-02-19T19:38:28.557Z,98257.59
2024-02-19T19:40:58.246Z,98257.66
2024-02-19T19:43:28.354Z,98232.66
2024-02-19T19:45:57.414Z,98260.38
2024-02-19T19:48:29.823Z,98263.88
2024-02-19T19:51:00.081Z,98266.53
2024-02-19T19:53:30.480Z,98263.06
2024-02-19T19:55:59.141Z,98250.97
2024-02-19T19:58:32.579Z,98244.94
2024-02-19T20:01:02.358Z,98275.31
2024-02-19T20:03:30.822Z,98274.50
2024-02-19T20:05:59.679Z,98270.22
2024-02-19T20:08:28.366Z,98273.69
2024-02-19T20:10:57.175Z,98271.09
2024-02-19T20:13:25.781Z,98278.97
2024-02-19T20:15:56.380Z,98256.41
2024-02-19T20:18:28.944Z,98257.28
2024-02-19T20:20:57.648Z,98288.56
2024-02-19T20:23:27.722Z,98286.00
2024-02-19T20:25:58.737Z,98287.72
2024-02-19T20:28:27.533Z,98286.84
2024-02-19T20:30:57.491Z,98284.31
2024-02-19T20:33:25.952Z,98300.75
2024-02-19T20:35:56.273Z,98275.66
2024-02-19T20:38:24.788Z,98286.91
2024-02-19T20:40:53.219Z,98293.06
2024-02-19T20:43:21.776Z,98270.59
2024-02-19T20:45:50.591Z,98275.81
2024-02-19T20:48:20.737Z,98255.00
2024-02-19T20:50:49.253Z,98261.09
2024-02-19T20:53:17.540Z,98271.50
2024-02-19T20:55:46.214Z,98287.94
2024-02-19T20:58:16.347Z,98281.88
2024-02-19T21:00:44.925Z,98285.34
2024-02-19T21:03:13.281Z,98279.25
2024-02-19T21:05:44.145Z,98287.09
2024-02-19T21:08:12.815Z,98276.66
2024-02-19T21:10:44.183Z,98293.19
2024-02-19T21:13:12.686Z,98285.38
2024-02-19T21:15:41.126Z,98062.63
2024-02-19T21:18:11.545Z,98288.00
2024-02-19T21:20:40.342Z,98290.56
2024-02-19T21:23:12.111Z,98287.97
2024-02-19T21:25:41.598Z,98290.59
2024-02-19T21:28:09.965Z,98272.38
2024-02-19T21:30:38.343Z,98274.97
2024-02-19T21:33:08.110Z,98271.53
2024-02-19T21:35:36.350Z,98288.00
2024-02-19T21:38:04.570Z,98297.53
2024-02-19T21:40:34.202Z,98293.19
2024-02-19T21:43:02.440Z,98294.91
2024-02-19T21:45:30.665Z,98301.88
2024-02-19T21:47:59.460Z,98151.84
2024-02-19T21:50:31.330Z,98241.19
2024-02-19T21:53:00.665Z,98307.09
2024-02-19T21:55:31.100Z,98286.25
2024-02-19T21:58:00.829Z,98289.75
2024-02-19T22:00:29.056Z,98287.94
2024-02-19T22:02:57.891Z,98295.72
2024-02-19T22:05:26.298Z,98276.63
2024-02-19T22:07:54.532Z,98300.09
2024-02-19T22:10:23.276Z,98300.06
2024-02-19T22:12:51.635Z,98300.09
2024-02-19T22:15:22.146Z,98285.34
2024-02-19T22:17:50.853Z,98290.50
2024-02-19T22:20:19.415Z,98303.50
2024-02-19T22:22:48.406Z,98303.50
2024-02-19T22:25:18.205Z,98298.34
2024-02-19T22:27:46.531Z,98304.38
2024-02-19T22:30:15.442Z,98301.75
2024-02-19T22:32:45.143Z,98306.97
2024-02-19T22:35:13.570Z,98304.34
2024-02-19T22:37:41.950Z,98304.38
2024-02-19T22:40:11.687Z,98311.34
2024-02-19T22:42:39.951Z,98306.13
2024-02-19T22:45:09.581Z,98307.84
2024-02-19T22:47:38.299Z,98305.16
2024-02-19T22:50:09.256Z,98312.00
2024-02-19T22:52:39.621Z,98296.28
2024-02-19T22:55:09.390Z,98282.41
2024-02-19T22:57:39.373Z,98308.47
2024-02-19T23:00:23.792Z,98311.94
2024-02-19T23:02:52.250Z,98288.53
2024-02-19T23:05:22.045Z,98285.16
2024-02-19T23:07:50.478Z,98216.59
2024-02-19T23:10:19.026Z,98210.53
2024-02-19T23:12:47.309Z,98297.31
2024-02-19T23:15:15.813Z,98301.63
2024-02-19T23:17:44.275Z,98305.09
2024-02-19T23:20:13.387Z,98295.56
2024-02-19T23:22:46.576Z,98329.34
2024-02-19T23:25:16.199Z,98332.72
2024-02-19T23:27:44.443Z,98331.78
2024-02-19T23:30:14.180Z,98329.16
2024-02-19T23:32:42.462Z,98329.16
2024-02-19T23:35:11.082Z,98326.59
2024-02-19T23:37:39.390Z,98317.91
2024-02-19T23:40:16.420Z,98319.66
2024-02-19T23:42:44.904Z,98338.78
2024-02-19T23:45:13.381Z,98314.59
2024-02-19T23:47:42.120Z,98320.69
2024-02-19T23:50:11.369Z,98284.25
2024-02-19T23:52:41.040Z,98284.22
2024-02-19T23:55:13.949Z,98260.78
2024-02-19T23:57:42.430Z,98284.22
